sensor_id;sensor_type;location;lat;lon;timestamp;temperature;humidity
28087;DHT22;15392;48.912;8.380;2023-11-21T00:01:44;14.70;59.20
28087;DHT22;15392;48.912;8.380;2023-11-21T00:04:30;14.70;59.20
28087;DHT22;15392;48.912;8.380;2023-11-21T00:07:16;14.80;59.30
28087;DHT22;15392;48.912;8.380;2023-11-21T00:10:03;14.80;59.30
28087;DHT22;15392;48.912;8.380;2023-11-21T00:12:51;14.80;59.30
28087;DHT22;15392;48.912;8.380;2023-11-21T00:15:37;14.80;59.30
28087;DHT22;15392;48.912;8.380;2023-11-21T00:18:23;14.80;59.20
28087;DHT22;15392;48.912;8.380;2023-11-21T00:21:09;14.80;59.10
28087;DHT22;15392;48.912;8.380;2023-11-21T00:23:55;14.80;59.10
28087;DHT22;15392;48.912;8.380;2023-11-21T00:26:41;14.80;59.10
28087;DHT22;15392;48.912;8.380;2023-11-21T00:29:27;14.90;59.10
28087;DHT22;15392;48.912;8.380;2023-11-21T00:32:13;14.90;59.10
28087;DHT22;15392;48.912;8.380;2023-11-21T00:34:59;14.90;59.10
28087;DHT22;15392;48.912;8.380;2023-11-21T00:37:46;14.90;59.10
28087;DHT22;15392;48.912;8.380;2023-11-21T00:40:35;14.90;59.10
28087;DHT22;15392;48.912;8.380;2023-11-21T00:43:23;14.90;59.20
28087;DHT22;15392;48.912;8.380;2023-11-21T00:46:10;14.90;59.20
28087;DHT22;15392;48.912;8.380;2023-11-21T00:48:56;14.90;59.20
28087;DHT22;15392;48.912;8.380;2023-11-21T00:51:43;15.00;59.20
28087;DHT22;15392;48.912;8.380;2023-11-21T00:54:29;15.00;59.20
28087;DHT22;15392;48.912;8.380;2023-11-21T00:57:15;15.00;59.20
28087;DHT22;15392;48.912;8.380;2023-11-21T01:00:01;15.00;59.10
28087;DHT22;15392;48.912;8.380;2023-11-21T01:02:47;15.00;59.10
28087;DHT22;15392;48.912;8.380;2023-11-21T01:05:34;15.00;59.00
28087;DHT22;15392;48.912;8.380;2023-11-21T01:08:20;15.00;58.90
28087;DHT22;15392;48.912;8.380;2023-11-21T01:11:07;15.00;58.80
28087;DHT22;15392;48.912;8.380;2023-11-21T01:13:57;15.00;58.90
28087;DHT22;15392;48.912;8.380;2023-11-21T01:16:45;15.00;59.00
28087;DHT22;15392;48.912;8.380;2023-11-21T01:19:31;15.00;59.00
28087;DHT22;15392;48.912;8.380;2023-11-21T01:22:17;15.00;59.00
28087;DHT22;15392;48.912;8.380;2023-11-21T01:25:05;15.00;59.00
28087;DHT22;15392;48.912;8.380;2023-11-21T01:27:53;15.00;59.00
28087;DHT22;15392;48.912;8.380;2023-11-21T01:30:39;15.00;59.00
28087;DHT22;15392;48.912;8.380;2023-11-21T01:33:25;15.00;59.00
28087;DHT22;15392;48.912;8.380;2023-11-21T01:36:11;15.00;59.10
28087;DHT22;15392;48.912;8.380;2023-11-21T01:38:57;15.00;59.10
28087;DHT22;15392;48.912;8.380;2023-11-21T01:41:44;15.00;59.10
28087;DHT22;15392;48.912;8.380;2023-11-21T01:44:30;15.00;59.10
28087;DHT22;15392;48.912;8.380;2023-11-21T01:47:17;14.90;59.00
28087;DHT22;15392;48.912;8.380;2023-11-21T01:50:04;14.90;59.00
28087;DHT22;15392;48.912;8.380;2023-11-21T01:52:52;14.90;59.00
28087;DHT22;15392;48.912;8.380;2023-11-21T01:55:40;14.90;59.00
28087;DHT22;15392;48.912;8.380;2023-11-21T01:58:26;14.90;59.10
28087;DHT22;15392;48.912;8.380;2023-11-21T02:01:12;14.90;59.20
28087;DHT22;15392;48.912;8.380;2023-11-21T02:03:59;14.90;59.20
28087;DHT22;15392;48.912;8.380;2023-11-21T02:06:46;14.90;59.30
28087;DHT22;15392;48.912;8.380;2023-11-21T02:09:32;14.90;59.30
28087;DHT22;15392;48.912;8.380;2023-11-21T02:12:24;14.90;59.40
28087;DHT22;15392;48.912;8.380;2023-11-21T02:15:13;14.90;59.40
28087;DHT22;15392;48.912;8.380;2023-11-21T02:18:05;14.80;59.40
28087;DHT22;15392;48.912;8.380;2023-11-21T02:20:51;14.90;59.40
28087;DHT22;15392;48.912;8.380;2023-11-21T02:23:37;14.80;59.40
28087;DHT22;15392;48.912;8.380;2023-11-21T02:26:27;14.80;59.40
28087;DHT22;15392;48.912;8.380;2023-11-21T02:29:14;14.80;59.50
28087;DHT22;15392;48.912;8.380;2023-11-21T02:32:03;14.80;59.50
28087;DHT22;15392;48.912;8.380;2023-11-21T02:34:49;14.80;59.50
28087;DHT22;15392;48.912;8.380;2023-11-21T02:37:35;14.80;59.60
28087;DHT22;15392;48.912;8.380;2023-11-21T02:40:21;14.70;59.60
28087;DHT22;15392;48.912;8.380;2023-11-21T02:43:07;14.70;59.60
28087;DHT22;15392;48.912;8.380;2023-11-21T02:45:53;14.70;59.60
28087;DHT22;15392;48.912;8.380;2023-11-21T02:48:39;14.60;59.60
28087;DHT22;15392;48.912;8.380;2023-11-21T02:51:25;14.60;59.70
28087;DHT22;15392;48.912;8.380;2023-11-21T02:54:11;14.60;59.70
28087;DHT22;15392;48.912;8.380;2023-11-21T02:56:57;14.60;59.80
28087;DHT22;15392;48.912;8.380;2023-11-21T02:59:44;14.50;59.80
28087;DHT22;15392;48.912;8.380;2023-11-21T03:02:30;14.60;59.80
28087;DHT22;15392;48.912;8.380;2023-11-21T03:05:16;14.50;59.80
28087;DHT22;15392;48.912;8.380;2023-11-21T03:08:02;14.50;59.90
28087;DHT22;15392;48.912;8.380;2023-11-21T03:10:48;14.50;59.90
28087;DHT22;15392;48.912;8.380;2023-11-21T03:13:34;14.50;59.90
28087;DHT22;15392;48.912;8.380;2023-11-21T03:16:20;14.50;59.90
28087;DHT22;15392;48.912;8.380;2023-11-21T03:19:06;14.40;59.80
28087;DHT22;15392;48.912;8.380;2023-11-21T03:21:53;14.40;59.90
28087;DHT22;15392;48.912;8.380;2023-11-21T03:24:39;14.40;60.00
28087;DHT22;15392;48.912;8.380;2023-11-21T03:27:25;14.40;60.10
28087;DHT22;15392;48.912;8.380;2023-11-21T03:30:12;14.40;59.90
28087;DHT22;15392;48.912;8.380;2023-11-21T03:32:58;14.30;59.90
28087;DHT22;15392;48.912;8.380;2023-11-21T03:35:44;14.40;59.90
28087;DHT22;15392;48.912;8.380;2023-11-21T03:38:30;14.40;60.00
28087;DHT22;15392;48.912;8.380;2023-11-21T03:41:16;14.40;60.00
28087;DHT22;15392;48.912;8.380;2023-11-21T03:44:02;14.40;60.00
28087;DHT22;15392;48.912;8.380;2023-11-21T03:46:48;14.30;60.00
28087;DHT22;15392;48.912;8.380;2023-11-21T03:49:34;14.30;59.90
28087;DHT22;15392;48.912;8.380;2023-11-21T03:52:20;14.30;59.90
28087;DHT22;15392;48.912;8.380;2023-11-21T03:55:06;14.30;59.90
28087;DHT22;15392;48.912;8.380;2023-11-21T03:57:52;14.30;59.90
28087;DHT22;15392;48.912;8.380;2023-11-21T04:00:38;14.30;60.00
28087;DHT22;15392;48.912;8.380;2023-11-21T04:03:24;14.30;60.80
28087;DHT22;15392;48.912;8.380;2023-11-21T04:06:10;14.30;60.00
28087;DHT22;15392;48.912;8.380;2023-11-21T04:08:56;14.30;60.00
28087;DHT22;15392;48.912;8.380;2023-11-21T04:11:42;14.40;60.10
28087;DHT22;15392;48.912;8.380;2023-11-21T04:14:31;14.30;60.00
28087;DHT22;15392;48.912;8.380;2023-11-21T04:17:20;14.30;60.00
28087;DHT22;15392;48.912;8.380;2023-11-21T04:20:07;14.40;60.10
28087;DHT22;15392;48.912;8.380;2023-11-21T04:22:55;14.40;60.10
28087;DHT22;15392;48.912;8.380;2023-11-21T04:25:41;14.40;60.00
28087;DHT22;15392;48.912;8.380;2023-11-21T04:28:27;14.40;59.90
28087;DHT22;15392;48.912;8.380;2023-11-21T04:31:13;14.40;59.90
28087;DHT22;15392;48.912;8.380;2023-11-21T04:33:59;14.40;59.90
28087;DHT22;15392;48.912;8.380;2023-11-21T04:36:45;14.40;59.80
28087;DHT22;15392;48.912;8.380;2023-11-21T04:39:32;14.40;59.80
28087;DHT22;15392;48.912;8.380;2023-11-21T04:42:18;14.40;59.80
28087;DHT22;15392;48.912;8.380;2023-11-21T04:45:05;14.40;59.80
28087;DHT22;15392;48.912;8.380;2023-11-21T04:47:54;14.40;59.80
28087;DHT22;15392;48.912;8.380;2023-11-21T04:50:40;14.40;60.10
28087;DHT22;15392;48.912;8.380;2023-11-21T04:53:26;14.40;59.80
28087;DHT22;15392;48.912;8.380;2023-11-21T04:56:12;14.40;59.70
28087;DHT22;15392;48.912;8.380;2023-11-21T04:58:58;14.40;59.80
28087;DHT22;15392;48.912;8.380;2023-11-21T05:01:44;14.40;59.80
28087;DHT22;15392;48.912;8.380;2023-11-21T05:04:30;14.40;59.80
28087;DHT22;15392;48.912;8.380;2023-11-21T05:07:16;14.40;59.90
28087;DHT22;15392;48.912;8.380;2023-11-21T05:10:03;14.40;60.00
28087;DHT22;15392;48.912;8.380;2023-11-21T05:12:53;14.40;59.90
28087;DHT22;15392;48.912;8.380;2023-11-21T05:15:39;14.40;59.90
28087;DHT22;15392;48.912;8.380;2023-11-21T05:18:25;14.40;59.90
28087;DHT22;15392;48.912;8.380;2023-11-21T05:21:15;14.40;60.00
28087;DHT22;15392;48.912;8.380;2023-11-21T05:24:01;14.40;60.00
28087;DHT22;15392;48.912;8.380;2023-11-21T05:26:47;14.40;60.00
28087;DHT22;15392;48.912;8.380;2023-11-21T05:29:33;14.40;60.00
28087;DHT22;15392;48.912;8.380;2023-11-21T05:32:19;14.40;60.80
28087;DHT22;15392;48.912;8.380;2023-11-21T05:35:05;14.40;60.00
28087;DHT22;15392;48.912;8.380;2023-11-21T05:37:56;14.40;60.00
28087;DHT22;15392;48.912;8.380;2023-11-21T05:40:42;14.40;60.50
28087;DHT22;15392;48.912;8.380;2023-11-21T05:43:30;14.40;60.10
28087;DHT22;15392;48.912;8.380;2023-11-21T05:46:16;14.30;60.10
28087;DHT22;15392;48.912;8.380;2023-11-21T05:49:02;14.30;60.20
28087;DHT22;15392;48.912;8.380;2023-11-21T05:51:48;14.30;60.30
28087;DHT22;15392;48.912;8.380;2023-11-21T05:54:34;14.30;60.40
28087;DHT22;15392;48.912;8.380;2023-11-21T05:57:20;14.30;60.70
28087;DHT22;15392;48.912;8.380;2023-11-21T06:00:14;14.30;60.90
28087;DHT22;15392;48.912;8.380;2023-11-21T06:03:11;14.30;60.90
28087;DHT22;15392;48.912;8.380;2023-11-21T06:05:58;14.30;61.10
28087;DHT22;15392;48.912;8.380;2023-11-21T06:08:44;14.20;61.10
28087;DHT22;15392;48.912;8.380;2023-11-21T06:11:30;14.30;61.10
28087;DHT22;15392;48.912;8.380;2023-11-21T06:14:16;14.20;61.30
28087;DHT22;15392;48.912;8.380;2023-11-21T06:17:03;14.20;61.30
28087;DHT22;15392;48.912;8.380;2023-11-21T06:19:49;14.20;61.40
28087;DHT22;15392;48.912;8.380;2023-11-21T06:22:37;14.20;61.60
28087;DHT22;15392;48.912;8.380;2023-11-21T06:25:24;14.20;61.70
28087;DHT22;15392;48.912;8.380;2023-11-21T06:28:09;14.20;61.90
28087;DHT22;15392;48.912;8.380;2023-11-21T06:30:56;14.20;61.90
28087;DHT22;15392;48.912;8.380;2023-11-21T06:33:43;14.10;61.90
28087;DHT22;15392;48.912;8.380;2023-11-21T06:36:29;14.20;62.20
28087;DHT22;15392;48.912;8.380;2023-11-21T06:39:15;14.10;62.30
28087;DHT22;15392;48.912;8.380;2023-11-21T06:42:02;14.10;62.10
28087;DHT22;15392;48.912;8.380;2023-11-21T06:44:50;14.10;62.20
28087;DHT22;15392;48.912;8.380;2023-11-21T06:47:42;14.10;62.10
28087;DHT22;15392;48.912;8.380;2023-11-21T06:50:28;14.10;62.20
28087;DHT22;15392;48.912;8.380;2023-11-21T06:53:14;14.10;62.10
28087;DHT22;15392;48.912;8.380;2023-11-21T06:56:00;14.10;62.20
28087;DHT22;15392;48.912;8.380;2023-11-21T06:58:46;14.10;62.20
28087;DHT22;15392;48.912;8.380;2023-11-21T07:01:32;14.10;62.30
28087;DHT22;15392;48.912;8.380;2023-11-21T07:04:24;14.10;62.10
28087;DHT22;15392;48.912;8.380;2023-11-21T07:07:13;14.10;62.00
28087;DHT22;15392;48.912;8.380;2023-11-21T07:09:59;14.10;62.00
28087;DHT22;15392;48.912;8.380;2023-11-21T07:12:48;14.10;62.10
28087;DHT22;15392;48.912;8.380;2023-11-21T07:15:34;14.10;62.00
28087;DHT22;15392;48.912;8.380;2023-11-21T07:18:20;14.10;61.80
28087;DHT22;15392;48.912;8.380;2023-11-21T07:21:06;14.10;61.70
28087;DHT22;15392;48.912;8.380;2023-11-21T07:23:54;14.10;62.00
28087;DHT22;15392;48.912;8.380;2023-11-21T07:26:40;14.10;62.00
28087;DHT22;15392;48.912;8.380;2023-11-21T07:29:26;14.10;61.80
28087;DHT22;15392;48.912;8.380;2023-11-21T07:32:12;14.10;61.80
28087;DHT22;15392;48.912;8.380;2023-11-21T07:34:59;14.10;62.00
28087;DHT22;15392;48.912;8.380;2023-11-21T07:37:47;14.10;61.90
28087;DHT22;15392;48.912;8.380;2023-11-21T07:40:34;14.10;61.80
28087;DHT22;15392;48.912;8.380;2023-11-21T07:43:20;14.10;61.70
28087;DHT22;15392;48.912;8.380;2023-11-21T07:46:06;14.10;61.70
28087;DHT22;15392;48.912;8.380;2023-11-21T07:48:53;14.10;61.70
28087;DHT22;15392;48.912;8.380;2023-11-21T07:51:39;14.10;61.60
28087;DHT22;15392;48.912;8.380;2023-11-21T07:54:25;14.10;61.70
28087;DHT22;15392;48.912;8.380;2023-11-21T07:57:11;14.10;61.60
28087;DHT22;15392;48.912;8.380;2023-11-21T07:59:59;14.10;61.60
28087;DHT22;15392;48.912;8.380;2023-11-21T08:02:46;14.10;61.80
28087;DHT22;15392;48.912;8.380;2023-11-21T08:05:32;14.10;61.80
28087;DHT22;15392;48.912;8.380;2023-11-21T08:08:18;14.10;61.90
28087;DHT22;15392;48.912;8.380;2023-11-21T08:11:04;14.10;62.00
28087;DHT22;15392;48.912;8.380;2023-11-21T08:13:51;14.10;62.10
28087;DHT22;15392;48.912;8.380;2023-11-21T08:16:36;14.10;62.20
28087;DHT22;15392;48.912;8.380;2023-11-21T08:19:24;14.20;62.30
28087;DHT22;15392;48.912;8.380;2023-11-21T08:22:12;14.10;62.20
28087;DHT22;15392;48.912;8.380;2023-11-21T08:24:58;14.10;62.20
28087;DHT22;15392;48.912;8.380;2023-11-21T08:27:44;14.10;62.20
28087;DHT22;15392;48.912;8.380;2023-11-21T08:30:31;14.10;62.20
28087;DHT22;15392;48.912;8.380;2023-11-21T08:33:17;14.10;62.20
28087;DHT22;15392;48.912;8.380;2023-11-21T08:36:10;14.10;62.20
28087;DHT22;15392;48.912;8.380;2023-11-21T08:38:57;14.10;62.40
28087;DHT22;15392;48.912;8.380;2023-11-21T08:41:43;14.10;62.20
28087;DHT22;15392;48.912;8.380;2023-11-21T08:44:29;14.10;62.20
28087;DHT22;15392;48.912;8.380;2023-11-21T08:47:16;14.20;62.30
28087;DHT22;15392;48.912;8.380;2023-11-21T08:50:02;14.10;62.30
28087;DHT22;15392;48.912;8.380;2023-11-21T08:52:48;14.10;62.30
28087;DHT22;15392;48.912;8.380;2023-11-21T08:55:34;14.20;62.50
28087;DHT22;15392;48.912;8.380;2023-11-21T08:58:23;14.20;62.60
28087;DHT22;15392;48.912;8.380;2023-11-21T09:01:09;14.20;62.50
28087;DHT22;15392;48.912;8.380;2023-11-21T09:03:55;14.20;62.40
28087;DHT22;15392;48.912;8.380;2023-11-21T09:06:40;14.20;62.40
28087;DHT22;15392;48.912;8.380;2023-11-21T09:09:26;14.20;62.40
28087;DHT22;15392;48.912;8.380;2023-11-21T09:12:13;14.20;62.30
28087;DHT22;15392;48.912;8.380;2023-11-21T09:15:00;14.20;62.40
28087;DHT22;15392;48.912;8.380;2023-11-21T09:17:50;14.20;62.40
28087;DHT22;15392;48.912;8.380;2023-11-21T09:20:36;14.20;63.10
28087;DHT22;15392;48.912;8.380;2023-11-21T09:23:22;14.20;62.20
28087;DHT22;15392;48.912;8.380;2023-11-21T09:26:08;14.20;62.40
28087;DHT22;15392;48.912;8.380;2023-11-21T09:28:54;14.30;62.40
28087;DHT22;15392;48.912;8.380;2023-11-21T09:31:42;14.30;62.30
28087;DHT22;15392;48.912;8.380;2023-11-21T09:34:29;14.30;62.30
28087;DHT22;15392;48.912;8.380;2023-11-21T09:37:15;14.30;62.30
28087;DHT22;15392;48.912;8.380;2023-11-21T09:40:02;14.30;62.20
28087;DHT22;15392;48.912;8.380;2023-11-21T09:42:56;14.30;62.10
28087;DHT22;15392;48.912;8.380;2023-11-21T09:45:45;14.40;62.40
28087;DHT22;15392;48.912;8.380;2023-11-21T09:48:33;14.40;62.20
28087;DHT22;15392;48.912;8.380;2023-11-21T09:51:24;14.40;62.10
28087;DHT22;15392;48.912;8.380;2023-11-21T09:54:16;14.40;62.00
28087;DHT22;15392;48.912;8.380;2023-11-21T09:57:05;14.40;61.90
28087;DHT22;15392;48.912;8.380;2023-11-21T09:59:52;14.40;61.90
28087;DHT22;15392;48.912;8.380;2023-11-21T10:02:44;14.50;61.90
28087;DHT22;15392;48.912;8.380;2023-11-21T10:05:30;14.50;62.00
28087;DHT22;15392;48.912;8.380;2023-11-21T10:08:20;14.50;62.10
28087;DHT22;15392;48.912;8.380;2023-11-21T10:11:10;14.50;62.10
28087;DHT22;15392;48.912;8.380;2023-11-21T10:14:00;14.50;62.10
28087;DHT22;15392;48.912;8.380;2023-11-21T10:16:48;14.50;62.10
28087;DHT22;15392;48.912;8.380;2023-11-21T10:19:36;14.60;62.00
28087;DHT22;15392;48.912;8.380;2023-11-21T10:22:22;14.60;62.00
28087;DHT22;15392;48.912;8.380;2023-11-21T10:25:09;14.60;61.90
28087;DHT22;15392;48.912;8.380;2023-11-21T10:27:58;14.60;61.80
28087;DHT22;15392;48.912;8.380;2023-11-21T10:30:51;14.70;61.80
28087;DHT22;15392;48.912;8.380;2023-11-21T10:33:38;14.70;61.60
28087;DHT22;15392;48.912;8.380;2023-11-21T10:36:28;14.70;61.50
28087;DHT22;15392;48.912;8.380;2023-11-21T10:39:18;14.70;61.40
28087;DHT22;15392;48.912;8.380;2023-11-21T10:42:08;14.70;61.40
28087;DHT22;15392;48.912;8.380;2023-11-21T10:44:55;14.70;61.40
28087;DHT22;15392;48.912;8.380;2023-11-21T10:47:43;14.80;61.40
28087;DHT22;15392;48.912;8.380;2023-11-21T10:50:29;14.80;61.40
28087;DHT22;15392;48.912;8.380;2023-11-21T10:53:15;14.80;61.40
28087;DHT22;15392;48.912;8.380;2023-11-21T10:56:06;14.90;61.40
28087;DHT22;15392;48.912;8.380;2023-11-21T10:58:55;14.90;61.30
28087;DHT22;15392;48.912;8.380;2023-11-21T11:01:45;14.80;61.10
28087;DHT22;15392;48.912;8.380;2023-11-21T11:04:32;14.90;61.10
28087;DHT22;15392;48.912;8.380;2023-11-21T11:07:19;14.90;61.00
28087;DHT22;15392;48.912;8.380;2023-11-21T11:10:09;14.90;60.90
28087;DHT22;15392;48.912;8.380;2023-11-21T11:12:59;14.90;60.90
28087;DHT22;15392;48.912;8.380;2023-11-21T11:15:49;14.90;60.90
28087;DHT22;15392;48.912;8.380;2023-11-21T11:18:36;14.80;60.90
28087;DHT22;15392;48.912;8.380;2023-11-21T11:27:48;14.80;60.90
28087;DHT22;15392;48.912;8.380;2023-11-21T11:34:23;14.80;61.20
28087;DHT22;15392;48.912;8.380;2023-11-21T11:37:18;14.90;61.20
28087;DHT22;15392;48.912;8.380;2023-11-21T11:40:11;14.90;61.00
28087;DHT22;15392;48.912;8.380;2023-11-21T11:42:58;14.80;61.10
28087;DHT22;15392;48.912;8.380;2023-11-21T11:45:48;14.80;61.00
28087;DHT22;15392;48.912;8.380;2023-11-21T11:48:40;14.90;61.10
28087;DHT22;15392;48.912;8.380;2023-11-21T11:51:27;14.90;61.10
28087;DHT22;15392;48.912;8.380;2023-11-21T11:54:13;14.90;61.10
28087;DHT22;15392;48.912;8.380;2023-11-21T11:56:59;14.90;60.90
28087;DHT22;15392;48.912;8.380;2023-11-21T12:03:10;14.90;61.20
28087;DHT22;15392;48.912;8.380;2023-11-21T12:05:57;14.90;60.90
28087;DHT22;15392;48.912;8.380;2023-11-21T12:08:44;14.90;60.90
28087;DHT22;15392;48.912;8.380;2023-11-21T12:11:32;14.90;60.90
28087;DHT22;15392;48.912;8.380;2023-11-21T12:14:18;14.90;60.90
28087;DHT22;15392;48.912;8.380;2023-11-21T12:17:04;14.90;60.90
28087;DHT22;15392;48.912;8.380;2023-11-21T12:19:50;14.90;60.90
28087;DHT22;15392;48.912;8.380;2023-11-21T12:22:38;14.90;60.90
28087;DHT22;15392;48.912;8.380;2023-11-21T12:25:33;14.90;60.80
28087;DHT22;15392;48.912;8.380;2023-11-21T12:28:20;14.90;60.90
28087;DHT22;15392;48.912;8.380;2023-11-21T12:31:08;15.00;60.80
28087;DHT22;15392;48.912;8.380;2023-11-21T12:33:56;15.00;60.80
28087;DHT22;15392;48.912;8.380;2023-11-21T12:36:43;15.00;60.80
28087;DHT22;15392;48.912;8.380;2023-11-21T12:39:30;14.90;60.80
28087;DHT22;15392;48.912;8.380;2023-11-21T12:42:16;14.90;60.80
28087;DHT22;15392;48.912;8.380;2023-11-21T12:45:30;15.00;60.90
28087;DHT22;15392;48.912;8.380;2023-11-21T12:48:16;15.00;61.20
28087;DHT22;15392;48.912;8.380;2023-11-21T12:51:10;15.00;60.80
28087;DHT22;15392;48.912;8.380;2023-11-21T12:53:58;15.00;60.80
28087;DHT22;15392;48.912;8.380;2023-11-21T12:56:47;15.00;60.70
28087;DHT22;15392;48.912;8.380;2023-11-21T12:59:35;15.00;60.70
28087;DHT22;15392;48.912;8.380;2023-11-21T13:02:21;15.00;60.70
28087;DHT22;15392;48.912;8.380;2023-11-21T13:05:09;15.00;60.70
28087;DHT22;15392;48.912;8.380;2023-11-21T13:08:08;15.00;60.70
28087;DHT22;15392;48.912;8.380;2023-11-21T13:10:57;15.00;60.60
28087;DHT22;15392;48.912;8.380;2023-11-21T13:13:43;15.00;60.70
28087;DHT22;15392;48.912;8.380;2023-11-21T13:16:30;15.00;60.70
28087;DHT22;15392;48.912;8.380;2023-11-21T13:19:17;14.90;60.70
28087;DHT22;15392;48.912;8.380;2023-11-21T13:22:05;14.90;60.70
28087;DHT22;15392;48.912;8.380;2023-11-21T13:24:51;15.00;60.80
28087;DHT22;15392;48.912;8.380;2023-11-21T13:27:38;14.90;60.80
28087;DHT22;15392;48.912;8.380;2023-11-21T13:30:25;15.00;60.90
28087;DHT22;15392;48.912;8.380;2023-11-21T13:33:19;14.90;60.80
28087;DHT22;15392;48.912;8.380;2023-11-21T13:36:07;15.00;60.80
28087;DHT22;15392;48.912;8.380;2023-11-21T13:38:54;15.00;60.90
28087;DHT22;15392;48.912;8.380;2023-11-21T13:41:40;15.00;60.90
28087;DHT22;15392;48.912;8.380;2023-11-21T13:44:27;15.00;61.00
28087;DHT22;15392;48.912;8.380;2023-11-21T13:47:20;15.00;61.00
28087;DHT22;15392;48.912;8.380;2023-11-21T13:50:06;15.00;61.10
28087;DHT22;15392;48.912;8.380;2023-11-21T13:53:04;15.10;61.10
28087;DHT22;15392;48.912;8.380;2023-11-21T13:56:03;15.10;61.00
28087;DHT22;15392;48.912;8.380;2023-11-21T13:58:50;15.10;60.90
28087;DHT22;15392;48.912;8.380;2023-11-21T14:01:37;15.20;60.90
28087;DHT22;15392;48.912;8.380;2023-11-21T14:04:42;15.20;60.80
28087;DHT22;15392;48.912;8.380;2023-11-21T14:07:46;15.20;60.80
28087;DHT22;15392;48.912;8.380;2023-11-21T14:10:33;15.20;60.70
28087;DHT22;15392;48.912;8.380;2023-11-21T14:13:29;15.20;60.70
28087;DHT22;15392;48.912;8.380;2023-11-21T14:16:15;15.20;60.70
28087;DHT22;15392;48.912;8.380;2023-11-21T14:19:02;15.20;60.50
28087;DHT22;15392;48.912;8.380;2023-11-21T14:22:01;15.20;60.50
28087;DHT22;15392;48.912;8.380;2023-11-21T14:24:47;15.20;60.50
28087;DHT22;15392;48.912;8.380;2023-11-21T14:27:35;15.30;60.60
28087;DHT22;15392;48.912;8.380;2023-11-21T14:30:21;15.30;60.60
28087;DHT22;15392;48.912;8.380;2023-11-21T14:33:08;15.30;60.60
28087;DHT22;15392;48.912;8.380;2023-11-21T14:35:57;15.30;60.50
28087;DHT22;15392;48.912;8.380;2023-11-21T14:38:43;15.30;60.40
28087;DHT22;15392;48.912;8.380;2023-11-21T14:41:29;15.30;60.40
28087;DHT22;15392;48.912;8.380;2023-11-21T14:44:17;15.40;60.40
28087;DHT22;15392;48.912;8.380;2023-11-21T14:47:04;15.30;60.30
28087;DHT22;15392;48.912;8.380;2023-11-21T14:49:53;15.40;60.30
28087;DHT22;15392;48.912;8.380;2023-11-21T14:52:39;15.40;60.20
28087;DHT22;15392;48.912;8.380;2023-11-21T14:55:39;15.30;60.10
28087;DHT22;15392;48.912;8.380;2023-11-21T14:58:37;15.30;60.10
28087;DHT22;15392;48.912;8.380;2023-11-21T15:01:25;15.30;60.10
28087;DHT22;15392;48.912;8.380;2023-11-21T15:04:30;15.40;60.20
28087;DHT22;15392;48.912;8.380;2023-11-21T15:07:21;15.40;60.20
28087;DHT22;15392;48.912;8.380;2023-11-21T15:10:10;15.30;60.20
28087;DHT22;15392;48.912;8.380;2023-11-21T15:13:00;15.40;60.30
28087;DHT22;15392;48.912;8.380;2023-11-21T15:15:48;15.40;60.30
28087;DHT22;15392;48.912;8.380;2023-11-21T15:18:34;15.30;60.30
28087;DHT22;15392;48.912;8.380;2023-11-21T15:21:21;15.40;60.40
28087;DHT22;15392;48.912;8.380;2023-11-21T15:24:08;15.40;60.40
28087;DHT22;15392;48.912;8.380;2023-11-21T15:26:54;15.40;60.40
28087;DHT22;15392;48.912;8.380;2023-11-21T15:29:40;15.40;60.30
28087;DHT22;15392;48.912;8.380;2023-11-21T15:32:27;15.40;60.30
28087;DHT22;15392;48.912;8.380;2023-11-21T15:35:13;15.40;60.30
28087;DHT22;15392;48.912;8.380;2023-11-21T15:38:00;15.40;60.20
28087;DHT22;15392;48.912;8.380;2023-11-21T15:40:46;15.40;60.20
28087;DHT22;15392;48.912;8.380;2023-11-21T15:43:33;15.50;60.10
28087;DHT22;15392;48.912;8.380;2023-11-21T15:46:19;15.50;60.10
28087;DHT22;15392;48.912;8.380;2023-11-21T15:49:05;15.50;60.00
28087;DHT22;15392;48.912;8.380;2023-11-21T15:51:57;15.40;59.90
28087;DHT22;15392;48.912;8.380;2023-11-21T15:54:45;15.40;59.90
28087;DHT22;15392;48.912;8.380;2023-11-21T15:57:33;15.40;59.90
28087;DHT22;15392;48.912;8.380;2023-11-21T16:00:20;15.40;59.90
28087;DHT22;15392;48.912;8.380;2023-11-21T16:03:08;15.30;59.80
28087;DHT22;15392;48.912;8.380;2023-11-21T16:05:55;15.30;59.90
28087;DHT22;15392;48.912;8.380;2023-11-21T16:08:41;15.30;59.90
28087;DHT22;15392;48.912;8.380;2023-11-21T16:11:27;15.30;59.90
28087;DHT22;15392;48.912;8.380;2023-11-21T16:14:15;15.30;59.90
28087;DHT22;15392;48.912;8.380;2023-11-21T16:17:05;15.30;59.90
28087;DHT22;15392;48.912;8.380;2023-11-21T16:19:54;15.30;59.80
28087;DHT22;15392;48.912;8.380;2023-11-21T16:22:42;15.20;59.80
28087;DHT22;15392;48.912;8.380;2023-11-21T16:25:28;15.20;59.80
28087;DHT22;15392;48.912;8.380;2023-11-21T16:28:14;15.20;59.80
28087;DHT22;15392;48.912;8.380;2023-11-21T16:31:00;15.20;59.70
28087;DHT22;15392;48.912;8.380;2023-11-21T16:33:46;15.20;59.60
28087;DHT22;15392;48.912;8.380;2023-11-21T16:36:32;15.10;59.60
28087;DHT22;15392;48.912;8.380;2023-11-21T16:39:19;15.10;59.50
28087;DHT22;15392;48.912;8.380;2023-11-21T16:42:07;15.00;59.40
28087;DHT22;15392;48.912;8.380;2023-11-21T16:44:53;15.00;59.30
28087;DHT22;15392;48.912;8.380;2023-11-21T16:47:42;15.00;59.30
28087;DHT22;15392;48.912;8.380;2023-11-21T16:50:29;14.90;59.30
28087;DHT22;15392;48.912;8.380;2023-11-21T16:53:15;14.90;59.30
28087;DHT22;15392;48.912;8.380;2023-11-21T16:56:01;14.90;59.30
28087;DHT22;15392;48.912;8.380;2023-11-21T16:58:47;14.80;59.20
28087;DHT22;15392;48.912;8.380;2023-11-21T17:01:33;14.70;59.20
28087;DHT22;15392;48.912;8.380;2023-11-21T17:04:19;14.70;59.20
28087;DHT22;15392;48.912;8.380;2023-11-21T17:07:05;14.60;59.20
28087;DHT22;15392;48.912;8.380;2023-11-21T17:09:54;14.60;59.30
28087;DHT22;15392;48.912;8.380;2023-11-21T17:12:40;14.50;59.30
28087;DHT22;15392;48.912;8.380;2023-11-21T17:15:26;14.50;59.30
28087;DHT22;15392;48.912;8.380;2023-11-21T17:18:12;14.40;59.40
28087;DHT22;15392;48.912;8.380;2023-11-21T17:20:58;14.40;59.40
28087;DHT22;15392;48.912;8.380;2023-11-21T17:23:44;14.30;59.40
28087;DHT22;15392;48.912;8.380;2023-11-21T17:26:31;14.30;59.50
28087;DHT22;15392;48.912;8.380;2023-11-21T17:29:17;14.30;59.60
28087;DHT22;15392;48.912;8.380;2023-11-21T17:32:03;14.20;60.30
28087;DHT22;15392;48.912;8.380;2023-11-21T17:34:53;14.10;59.70
28087;DHT22;15392;48.912;8.380;2023-11-21T17:37:39;14.10;59.70
28087;DHT22;15392;48.912;8.380;2023-11-21T17:40:25;14.10;59.80
28087;DHT22;15392;48.912;8.380;2023-11-21T17:43:14;14.10;59.90
28087;DHT22;15392;48.912;8.380;2023-11-21T17:46:00;14.00;59.80
28087;DHT22;15392;48.912;8.380;2023-11-21T17:48:47;14.00;59.90
28087;DHT22;15392;48.912;8.380;2023-11-21T17:51:40;14.00;60.00